Tiny Sanderson — WDC2708 — position and weather

sailwx.info

Track history (hours):
 
Tides and Currents Weather Stations Pressure Air Temp Water Temp Dewpoint Dewpoint Depression Visibility Wind Speed Wind Dir Waves Ship Positions

Tiny Sanderson

Owner: Kirby Inland Marine, LP, Houston, TX. More information available from US FCC via Universal Licensing System and Coast Guard Vessel Documentation Center.

Last reported at 2017-Oct-17 00:17 UTC. Time now 2017-Oct-17 03:56 UTC.
Position N 29°47' W 095°04'.

Length 25 m; draft 3 m.

Type: Towing. MMSI: 366996650.

Date/timePositionNaut miles runAvg speedWind from/ knotsBaromVisibWave heightAir tempDewpointWater temp
2017-Oct-17 00:17N 29°47' W 095°04'2 0.5
2017-Oct-16 19:53N 29°45' W 095°06'0 0.0
2017-Oct-16 19:17N 29°45' W 095°06'0 0.8
2017-Oct-16 18:59N 29°45' W 095°06'2 0.2
2017-Oct-16 08:38N 29°47' W 095°04'4 0.7
2017-Oct-16 02:50N 29°44' W 095°02'2 6.0
2017-Oct-16 02:30N 29°42' W 095°01'3 5.8
2017-Oct-16 01:59N 29°40' W 094°58'3 6.7
2017-Oct-16 01:30N 29°37' W 094°57'3 6.6
2017-Oct-16 01:00N 29°34' W 094°55'3 5.9
2017-Oct-16 00:30N 29°31' W 094°53'3 6.1
2017-Oct-15 23:59N 29°29' W 094°51'78 2.9
2017-Oct-14 21:08N 30°04' W 093°31'1 6.8
2017-Oct-14 21:00N 30°04' W 093°30'3 6.8
2017-Oct-14 20:30N 30°04' W 093°26'3 6.8
2017-Oct-14 20:00N 30°04' W 093°22'3 5.8
2017-Oct-14 19:30N 30°05' W 093°20'2 3.2
2017-Oct-14 19:00N 30°05' W 093°18'0 0.8
2017-Oct-14 18:30N 30°05' W 093°18'1 1.9
2017-Oct-14 18:00N 30°05' W 093°17'2 3.4
2017-Oct-14 17:30N 30°03' W 093°16'3 5.2
2017-Oct-14 17:00N 30°01' W 093°14'2 2.5
2017-Oct-14 16:16N 29°60' W 093°13'1 3.4
2017-Oct-14 16:00N 29°59' W 093°12'3 5.4
2017-Oct-14 15:30N 29°57' W 093°10'3 5.2
2017-Oct-14 15:00N 29°56' W 093°07'43 5.0
2017-Oct-14 06:25N 29°50' W 092°18'3 5.3
2017-Oct-14 05:46N 29°48' W 092°15'1 5.6
2017-Oct-14 05:30N 29°48' W 092°13'2 4.4
2017-Oct-14 05:00N 29°47' W 092°11'2 4.6
2017-Oct-14 04:30N 29°47' W 092°08'3 6.1
2017-Oct-14 04:00N 29°48' W 092°05'3 5.8
2017-Oct-14 03:30N 29°49' W 092°02'4 5.7
2017-Oct-14 02:50N 29°50' W 091°58'2 5.4
2017-Oct-14 02:25N 29°51' W 091°55'60 4.5
2017-Oct-13 13:04N 29°32' W 090°50'0 5.8
2017-Oct-13 13:00N 29°32' W 090°50'3 5.9
2017-Oct-13 12:30N 29°32' W 090°46'3 5.2
2017-Oct-13 12:00N 29°34' W 090°44'2 3.8
2017-Oct-13 11:30N 29°35' W 090°43'2 3.3
2017-Oct-13 11:00N 29°37' W 090°41'2 3.3
2017-Oct-13 10:30N 29°36' W 090°40'3 5.2
2017-Oct-13 10:00N 29°35' W 090°37'3 5.1
2017-Oct-13 09:30N 29°34' W 090°34'3 5.1
2017-Oct-13 09:00N 29°34' W 090°31'3 5.5
2017-Oct-13 08:29N 29°33' W 090°28'3 5.4
2017-Oct-13 07:58N 29°33' W 090°25'  
Track history (hours):
 
Tides and Currents Weather Stations Pressure Air Temp Water Temp Dewpoint Dewpoint Depression Visibility Wind Speed Wind Dir Waves Ship Positions

Tiny Sanderson

Owner: Kirby Inland Marine, LP, Houston, TX. More information available from US FCC via Universal Licensing System and Coast Guard Vessel Documentation Center.

Last reported at 2017-Oct-17 00:17 UTC. Time now 2017-Oct-17 03:56 UTC.
Position N 29°47' W 095°04'.

Length 25 m; draft 3 m.

Type: Towing. MMSI: 366996650.

Date/timePositionNaut miles runAvg speedWind from/ knotsBaromVisibWave heightAir tempDewpointWater temp
2017-Oct-17 00:17N 29°47' W 095°04'2 0.5
2017-Oct-16 19:53N 29°45' W 095°06'0 0.0
2017-Oct-16 19:17N 29°45' W 095°06'0 0.8
2017-Oct-16 18:59N 29°45' W 095°06'2 0.2
2017-Oct-16 08:38N 29°47' W 095°04'4 0.7
2017-Oct-16 02:50N 29°44' W 095°02'2 6.0
2017-Oct-16 02:30N 29°42' W 095°01'3 5.8
2017-Oct-16 01:59N 29°40' W 094°58'3 6.7
2017-Oct-16 01:30N 29°37' W 094°57'3 6.6
2017-Oct-16 01:00N 29°34' W 094°55'3 5.9
2017-Oct-16 00:30N 29°31' W 094°53'3 6.1
2017-Oct-15 23:59N 29°29' W 094°51'78 2.9
2017-Oct-14 21:08N 30°04' W 093°31'1 6.8
2017-Oct-14 21:00N 30°04' W 093°30'3 6.8
2017-Oct-14 20:30N 30°04' W 093°26'3 6.8
2017-Oct-14 20:00N 30°04' W 093°22'3 5.8
2017-Oct-14 19:30N 30°05' W 093°20'2 3.2
2017-Oct-14 19:00N 30°05' W 093°18'0 0.8
2017-Oct-14 18:30N 30°05' W 093°18'1 1.9
2017-Oct-14 18:00N 30°05' W 093°17'2 3.4
2017-Oct-14 17:30N 30°03' W 093°16'3 5.2
2017-Oct-14 17:00N 30°01' W 093°14'2 2.5
2017-Oct-14 16:16N 29°60' W 093°13'1 3.4
2017-Oct-14 16:00N 29°59' W 093°12'3 5.4
2017-Oct-14 15:30N 29°57' W 093°10'3 5.2
2017-Oct-14 15:00N 29°56' W 093°07'43 5.0
2017-Oct-14 06:25N 29°50' W 092°18'3 5.3
2017-Oct-14 05:46N 29°48' W 092°15'1 5.6
2017-Oct-14 05:30N 29°48' W 092°13'2 4.4
2017-Oct-14 05:00N 29°47' W 092°11'2 4.6
2017-Oct-14 04:30N 29°47' W 092°08'3 6.1
2017-Oct-14 04:00N 29°48' W 092°05'3 5.8
2017-Oct-14 03:30N 29°49' W 092°02'4 5.7
2017-Oct-14 02:50N 29°50' W 091°58'2 5.4
2017-Oct-14 02:25N 29°51' W 091°55'60 4.5
2017-Oct-13 13:04N 29°32' W 090°50'0 5.8
2017-Oct-13 13:00N 29°32' W 090°50'3 5.9
2017-Oct-13 12:30N 29°32' W 090°46'3 5.2
2017-Oct-13 12:00N 29°34' W 090°44'2 3.8
2017-Oct-13 11:30N 29°35' W 090°43'2 3.3
2017-Oct-13 11:00N 29°37' W 090°41'2 3.3
2017-Oct-13 10:30N 29°36' W 090°40'3 5.2
2017-Oct-13 10:00N 29°35' W 090°37'3 5.1
2017-Oct-13 09:30N 29°34' W 090°34'3 5.1
2017-Oct-13 09:00N 29°34' W 090°31'3 5.5
2017-Oct-13 08:29N 29°33' W 090°28'3 5.4
2017-Oct-13 07:58N 29°33' W 090°25'  

Dump ship's entire track history